createdAt,value
2023-04-02T00:00:01.659Z,50.93
2023-04-02T00:03:08.791Z,51.07
2023-04-02T00:06:30.461Z,51.45
2023-04-02T00:09:36.797Z,51.49
2023-04-02T00:12:39.048Z,51.18
2023-04-02T00:15:43.773Z,51.75
2023-04-02T00:18:49.138Z,51.71
2023-04-02T00:21:52.403Z,51.96
2023-04-02T00:24:56.213Z,51.39
2023-04-02T00:27:58.735Z,52.06
2023-04-02T00:31:01.068Z,52.25
2023-04-02T00:34:04.827Z,51.88
2023-04-02T00:37:07.082Z,51.47
2023-04-02T00:40:30.312Z,51.69
2023-04-02T00:43:36.581Z,51.39
2023-04-02T00:46:49.536Z,52.37
2023-04-02T00:49:59.873Z,52.21
2023-04-02T00:53:10.620Z,52.66
2023-04-02T00:56:39.909Z,52.76
2023-04-02T00:59:57.092Z,52.97
2023-04-02T01:03:17.774Z,51.97
2023-04-02T01:06:20.668Z,52.67
2023-04-02T01:09:41.323Z,52.00
2023-04-02T01:12:58.845Z,51.45
2023-04-02T01:16:09.424Z,51.81
2023-04-02T01:19:36.559Z,51.19
2023-04-02T01:23:02.993Z,52.00
2023-04-02T01:26:20.956Z,51.27
2023-04-02T01:29:38.935Z,51.92
2023-04-02T01:32:43.003Z,51.55
2023-04-02T01:35:48.995Z,52.07
2023-04-02T01:38:57.261Z,52.67
2023-04-02T01:42:27.013Z,52.34
2023-04-02T01:45:29.658Z,52.96
2023-04-02T01:48:32.075Z,52.00
2023-04-02T01:51:36.164Z,52.08
2023-04-02T01:54:41.721Z,52.18
2023-04-02T01:57:47.716Z,52.59
2023-04-02T02:00:53.733Z,52.52
2023-04-02T02:03:56.132Z,52.14
2023-04-02T02:07:00.851Z,51.89
2023-04-02T02:10:04.345Z,52.14
2023-04-02T02:13:06.886Z,52.26
2023-04-02T02:16:12.975Z,52.10
2023-04-02T02:19:21.409Z,52.07
2023-04-02T02:22:29.873Z,51.62
2023-04-02T02:25:34.595Z,51.45
2023-04-02T02:28:40.253Z,51.54
2023-04-02T02:31:44.758Z,51.09
2023-04-02T02:34:52.648Z,52.27
2023-04-02T02:38:00.899Z,51.80
2023-04-02T02:41:30.774Z,52.28
2023-04-02T02:44:36.315Z,52.73
2023-04-02T02:47:42.497Z,52.50
2023-04-02T02:50:46.256Z,52.92
2023-04-02T02:53:52.467Z,52.29
2023-04-02T02:56:59.255Z,51.89
2023-04-02T03:00:05.934Z,52.11
2023-04-02T03:03:12.618Z,52.63
2023-04-02T03:06:17.147Z,52.82
2023-04-02T03:09:39.538Z,52.02
2023-04-02T03:12:54.426Z,51.79
2023-04-02T03:16:21.022Z,52.34
2023-04-02T03:19:48.243Z,52.73
2023-04-02T03:22:58.645Z,52.26
2023-04-02T03:26:01.039Z,53.03
2023-04-02T03:29:16.432Z,52.46
2023-04-02T03:32:20.993Z,52.58
2023-04-02T03:35:43.413Z,53.13
2023-04-02T03:39:27.249Z,53.70
2023-04-02T03:42:43.742Z,53.65
2023-04-02T03:45:50.410Z,52.97
2023-04-02T03:48:55.849Z,53.47
2023-04-02T03:52:10.990Z,53.56
2023-04-02T03:55:26.148Z,53.31
2023-04-02T03:59:16.667Z,53.96
2023-04-02T04:02:35.803Z,52.93
2023-04-02T04:05:48.342Z,53.73
2023-04-02T04:09:12.514Z,53.42
2023-04-02T04:12:31.870Z,54.07
2023-04-02T04:15:48.953Z,52.93
2023-04-02T04:18:57.266Z,53.92
2023-04-02T04:22:20.422Z,53.77
2023-04-02T04:25:29.899Z,54.16
2023-04-02T04:29:05.844Z,54.04
2023-04-02T04:32:42.775Z,53.79
2023-04-02T04:35:58.776Z,54.68
2023-04-02T04:39:14.609Z,54.31
2023-04-02T04:42:25.657Z,54.29
2023-04-02T04:45:36.755Z,53.68
2023-04-02T04:48:49.180Z,53.07
2023-04-02T04:51:55.245Z,53.52
2023-04-02T04:54:59.554Z,53.27
2023-04-02T04:58:24.937Z,52.93
2023-04-02T05:01:58.198Z,52.38
2023-04-02T05:05:01.051Z,52.31
2023-04-02T05:08:17.019Z,51.09
2023-04-02T05:11:26.559Z,51.24
2023-04-02T05:14:36.810Z,50.43
2023-04-02T05:17:51.204Z,49.88
2023-04-02T05:21:24.020Z,49.03
2023-04-02T05:24:51.303Z,48.58
2023-04-02T05:28:12.428Z,47.43
2023-04-02T05:31:36.228Z,45.74
2023-04-02T05:34:40.989Z,45.81
2023-04-02T05:37:43.672Z,44.31
2023-04-02T05:40:46.436Z,43.71
2023-04-02T05:43:49.965Z,41.78
2023-04-02T05:47:03.652Z,40.39
2023-04-02T05:50:18.019Z,35.99
2023-04-02T05:53:28.044Z,32.00
2023-04-02T05:56:41.541Z,37.35
2023-04-02T05:59:48.380Z,39.50
2023-04-02T06:03:00.097Z,41.13
2023-04-02T06:06:08.129Z,42.04
2023-04-02T06:09:55.430Z,43.14
2023-04-02T06:13:08.597Z,43.63
2023-04-02T06:16:16.708Z,42.76
2023-04-02T06:19:23.975Z,38.35
2023-04-02T06:22:33.296Z,38.44
2023-04-02T06:25:39.764Z,39.45
2023-04-02T06:28:47.978Z,41.25
2023-04-02T06:31:56.710Z,40.61
2023-04-02T06:35:00.381Z,36.89
2023-04-02T06:38:04.816Z,30.36
2023-04-02T06:41:17.484Z,26.09
2023-04-02T06:44:34.335Z,31.25
2023-04-02T06:47:57.497Z,34.15
2023-04-02T06:51:14.484Z,36.09
2023-04-02T06:54:17.911Z,37.96
2023-04-02T06:57:23.744Z,38.86
2023-04-02T07:00:35.489Z,39.66
2023-04-02T07:03:39.993Z,40.08
2023-04-02T07:06:51.338Z,41.03
2023-04-02T07:09:54.636Z,41.51
2023-04-02T07:12:57.021Z,40.65
2023-04-02T07:16:00.457Z,41.09
2023-04-02T07:19:04.291Z,40.78
2023-04-02T07:22:09.216Z,40.78
2023-04-02T07:25:15.555Z,41.61
2023-04-02T07:28:18.679Z,43.39
2023-04-02T07:31:25.742Z,41.06
2023-04-02T07:34:28.086Z,40.70
2023-04-02T07:37:30.705Z,40.90
2023-04-02T07:40:32.952Z,40.79
2023-04-02T07:43:36.149Z,40.06
2023-04-02T07:46:38.446Z,39.54
2023-04-02T07:49:40.886Z,39.21
2023-04-02T07:52:43.881Z,39.47
2023-04-02T07:55:46.139Z,38.59
2023-04-02T07:58:49.102Z,37.75
2023-04-02T08:01:52.790Z,37.48
2023-04-02T08:04:55.022Z,36.84
2023-04-02T08:07:57.432Z,37.06
2023-04-02T08:10:59.775Z,37.79
2023-04-02T08:14:02.009Z,38.09
2023-04-02T08:17:04.505Z,38.82
2023-04-02T08:20:08.019Z,38.57
2023-04-02T08:23:17.025Z,37.91
2023-04-02T08:26:19.254Z,37.56
2023-04-02T08:29:22.121Z,37.36
2023-04-02T08:32:26.458Z,36.37
2023-04-02T08:35:28.837Z,35.28
2023-04-02T08:38:31.195Z,34.47
2023-04-02T08:41:39.436Z,34.02
2023-04-02T08:45:08.121Z,33.68
2023-04-02T08:48:16.848Z,34.11
2023-04-02T08:51:27.798Z,33.49
2023-04-02T08:54:38.069Z,35.04
2023-04-02T08:57:52.251Z,35.24
2023-04-02T09:00:56.376Z,35.71
2023-04-02T09:03:59.108Z,36.12
2023-04-02T09:07:01.222Z,36.45
2023-04-02T09:10:04.422Z,36.27
2023-04-02T09:13:18.539Z,36.86
2023-04-02T09:16:44.324Z,36.49
2023-04-02T09:20:21.399Z,36.64
2023-04-02T09:23:26.061Z,36.44
2023-04-02T09:26:33.369Z,38.74
2023-04-02T09:33:46.411Z,38.89
2023-04-02T09:36:48.756Z,36.56
2023-04-02T09:39:51.780Z,36.86
2023-04-02T09:43:24.533Z,36.56
2023-04-02T09:46:26.824Z,36.30
2023-04-02T09:49:32.150Z,35.55
2023-04-02T09:52:34.418Z,36.31
2023-04-02T09:55:37.115Z,37.92
2023-04-02T09:58:40.744Z,37.90
2023-04-02T10:01:48.861Z,38.95
2023-04-02T10:04:51.746Z,38.29
2023-04-02T10:07:55.478Z,38.29
2023-04-02T10:11:00.725Z,38.74
2023-04-02T10:14:10.948Z,38.67
2023-04-02T10:17:17.980Z,38.53
2023-04-02T10:20:23.417Z,39.16
2023-04-02T10:23:28.635Z,39.46
2023-04-02T10:26:38.264Z,40.47
2023-04-02T10:29:49.460Z,40.67
2023-04-02T10:32:54.831Z,40.37
2023-04-02T10:36:09.826Z,40.28
2023-04-02T10:39:31.402Z,40.36
2023-04-02T10:42:36.653Z,40.68
2023-04-02T10:45:51.664Z,40.06
2023-04-02T10:48:53.879Z,40.69
2023-04-02T10:52:36.186Z,40.09
2023-04-02T10:55:44.265Z,40.13
2023-04-02T10:59:00.845Z,40.20
2023-04-02T11:02:23.319Z,40.07
2023-04-02T11:05:29.180Z,39.32
2023-04-02T11:08:42.022Z,39.21
2023-04-02T11:11:45.565Z,39.26
2023-04-02T11:14:48.247Z,39.51
2023-04-02T11:17:50.523Z,39.42
2023-04-02T11:20:58.570Z,39.27
2023-04-02T11:24:02.161Z,38.57
2023-04-02T11:27:09.904Z,37.99
2023-04-02T11:30:18.663Z,38.04
2023-04-02T11:33:39.870Z,38.52
2023-04-02T11:36:52.748Z,38.42
2023-04-02T11:40:02.525Z,39.35
2023-04-02T11:43:32.850Z,39.96
2023-04-02T11:46:45.521Z,38.21
2023-04-02T11:50:03.201Z,38.65
2023-04-02T11:53:21.165Z,39.13
2023-04-02T11:56:31.487Z,39.95
2023-04-02T11:59:41.035Z,38.89
2023-04-02T12:03:13.538Z,40.70
2023-04-02T12:06:32.362Z,39.64
2023-04-02T12:09:58.986Z,39.55
2023-04-02T12:13:01.367Z,39.04
2023-04-02T12:16:03.903Z,38.71
2023-04-02T12:19:08.826Z,39.06
2023-04-02T12:22:20.264Z,39.78
2023-04-02T12:25:40.272Z,39.45
2023-04-02T12:28:42.563Z,40.46
2023-04-02T12:31:46.521Z,38.75
2023-04-02T12:34:49.153Z,38.05
2023-04-02T12:37:53.526Z,37.57
2023-04-02T12:41:03.619Z,37.74
2023-04-02T12:44:11.607Z,39.29
2023-04-02T12:47:13.930Z,38.61
2023-04-02T12:50:17.310Z,39.13
2023-04-02T12:53:22.699Z,37.32
2023-04-02T12:56:25.149Z,39.22
2023-04-02T12:59:36.079Z,39.97
2023-04-02T13:02:47.039Z,40.44
2023-04-02T13:05:54.711Z,40.47
2023-04-02T13:08:57.112Z,39.86
2023-04-02T13:11:59.478Z,39.30
2023-04-02T13:15:08.028Z,38.11
2023-04-02T13:18:13.328Z,38.28
2023-04-02T13:21:21.650Z,40.14
2023-04-02T13:24:26.223Z,39.91
2023-04-02T13:27:28.437Z,40.33
2023-04-02T13:30:31.169Z,39.82
2023-04-02T13:33:33.562Z,39.06
2023-04-02T13:36:37.304Z,39.80
2023-04-02T13:39:39.540Z,40.25
2023-04-02T13:42:43.149Z,39.38
2023-04-02T13:45:49.077Z,39.00
2023-04-02T13:48:52.552Z,38.53
2023-04-02T13:51:59.842Z,38.27
2023-04-02T13:55:02.263Z,40.09
2023-04-02T13:58:05.439Z,40.21
2023-04-02T14:01:08.510Z,39.32
2023-04-02T14:04:16.262Z,39.88
2023-04-02T14:07:31.917Z,40.26
2023-04-02T14:10:40.240Z,39.65
2023-04-02T14:13:54.589Z,39.81
2023-04-02T14:17:17.928Z,38.48
2023-04-02T14:20:42.765Z,38.79
2023-04-02T14:24:08.219Z,40.26
2023-04-02T14:27:31.653Z,40.80
2023-04-02T14:30:55.373Z,41.54
2023-04-02T14:34:17.662Z,41.45
2023-04-02T14:37:27.114Z,40.61
2023-04-02T14:40:39.149Z,40.87
2023-04-02T14:43:44.050Z,40.83
2023-04-02T14:46:46.867Z,40.30
2023-04-02T14:49:54.711Z,41.01
2023-04-02T14:53:08.671Z,41.98
2023-04-02T14:56:12.459Z,42.75
2023-04-02T14:59:33.218Z,44.21
2023-04-02T15:02:46.248Z,44.96
2023-04-02T15:05:58.358Z,44.49
2023-04-02T15:09:20.868Z,43.73
2023-04-02T15:12:27.044Z,45.03
2023-04-02T15:15:40.554Z,46.43
2023-04-02T15:18:43.306Z,45.94
2023-04-02T15:22:08.847Z,47.82
2023-04-02T15:25:18.302Z,51.44
2023-04-02T15:28:30.041Z,51.61
2023-04-02T15:31:34.421Z,52.18
2023-04-02T15:34:45.446Z,53.73
2023-04-02T15:37:56.815Z,55.02
2023-04-02T15:41:02.681Z,55.71
2023-04-02T15:44:10.949Z,56.38
2023-04-02T15:47:34.422Z,57.56
2023-04-02T15:50:58.305Z,58.12
2023-04-02T15:54:03.433Z,58.74
2023-04-02T15:57:05.955Z,58.64
2023-04-02T16:00:20.196Z,59.49
2023-04-02T16:03:56.212Z,58.88
2023-04-02T16:07:13.481Z,57.89
2023-04-02T16:10:41.263Z,57.80
2023-04-02T16:13:45.122Z,59.16
2023-04-02T16:16:49.179Z,58.30
2023-04-02T16:19:54.695Z,58.49
2023-04-02T16:23:01.442Z,58.98
2023-04-02T16:26:18.949Z,60.90
2023-04-02T16:29:31.972Z,61.85
2023-04-02T16:32:48.100Z,61.92
2023-04-02T16:36:00.672Z,60.85
2023-04-02T16:39:34.792Z,60.27
2023-04-02T16:42:39.882Z,59.38
2023-04-02T16:45:57.843Z,59.42
2023-04-02T16:49:08.106Z,59.00
2023-04-02T16:52:13.327Z,57.39
2023-04-02T16:55:19.718Z,56.89
2023-04-02T16:59:03.769Z,56.37
2023-04-02T17:02:28.871Z,55.92
2023-04-02T17:05:32.901Z,57.40
2023-04-02T17:08:44.770Z,57.25
2023-04-02T17:11:50.718Z,60.96
2023-04-02T17:14:58.892Z,59.65
2023-04-02T17:18:02.009Z,56.65
2023-04-02T17:21:09.814Z,53.21
2023-04-02T17:24:11.997Z,54.77
2023-04-02T17:27:31.433Z,54.72
2023-04-02T17:31:00.456Z,50.67
2023-04-02T17:34:17.117Z,50.74
2023-04-02T17:37:28.035Z,49.21
2023-04-02T17:40:32.063Z,49.66
2023-04-02T17:43:37.433Z,48.81
2023-04-02T17:46:49.720Z,48.10
2023-04-02T17:50:29.450Z,48.40
2023-04-02T17:53:37.098Z,49.02
2023-04-02T17:56:55.104Z,48.19
2023-04-02T18:00:16.751Z,46.82
2023-04-02T18:03:43.562Z,46.17
2023-04-02T18:06:51.943Z,46.00
2023-04-02T18:10:22.155Z,45.93
2023-04-02T18:13:35.734Z,45.67
2023-04-02T18:17:06.794Z,46.20
2023-04-02T18:20:25.731Z,46.43
2023-04-02T18:24:08.094Z,45.83
2023-04-02T18:27:34.854Z,44.89
2023-04-02T18:31:01.941Z,45.94
2023-04-02T18:34:10.037Z,46.90
2023-04-02T18:37:49.490Z,45.36
2023-04-02T18:41:30.215Z,45.62
2023-04-02T18:44:50.000Z,44.51
2023-04-02T18:48:06.138Z,44.88
2023-04-02T18:51:16.459Z,44.64
2023-04-02T18:54:23.703Z,44.99
2023-04-02T18:57:29.668Z,45.19
2023-04-02T19:00:39.544Z,44.79
2023-04-02T19:03:51.876Z,45.36
2023-04-02T19:07:05.856Z,44.81
2023-04-02T19:10:20.422Z,45.53
2023-04-02T19:13:22.759Z,45.09
2023-04-02T19:16:37.214Z,44.69
2023-04-02T19:20:21.446Z,45.15
2023-04-02T19:23:29.861Z,44.35
2023-04-02T19:26:54.758Z,44.85
2023-04-02T19:30:09.658Z,44.66
2023-04-02T19:33:36.523Z,44.92
2023-04-02T19:36:55.415Z,44.43
2023-04-02T19:40:04.751Z,44.51
2023-04-02T19:43:07.582Z,44.04
2023-04-02T19:46:09.985Z,43.86
2023-04-02T19:49:13.040Z,43.73
2023-04-02T19:52:15.462Z,43.60
2023-04-02T19:55:17.637Z,44.23
2023-04-02T19:58:29.749Z,44.66
2023-04-02T20:01:32.000Z,44.44
2023-04-02T20:04:34.322Z,43.65
2023-04-02T20:07:36.584Z,43.27
2023-04-02T20:10:39.149Z,43.55
2023-04-02T20:13:41.440Z,44.46
2023-04-02T20:16:45.382Z,43.87
2023-04-02T20:19:48.144Z,44.86
2023-04-02T20:22:50.515Z,44.53
2023-04-02T20:25:56.364Z,44.69
2023-04-02T20:28:58.707Z,45.10
2023-04-02T20:32:00.978Z,44.78
2023-04-02T20:35:04.285Z,44.41
2023-04-02T20:38:06.655Z,44.64
2023-04-02T20:41:09.696Z,44.43
2023-04-02T20:44:13.049Z,44.51
2023-04-02T20:47:15.394Z,43.83
2023-04-02T20:50:17.694Z,43.99
2023-04-02T20:53:20.248Z,45.12
2023-04-02T20:56:26.705Z,44.44
2023-04-02T20:59:29.030Z,44.86
2023-04-02T21:02:31.379Z,44.34
2023-04-02T21:05:33.694Z,45.09
2023-04-02T21:08:37.024Z,45.01
2023-04-02T21:11:39.482Z,44.97
2023-04-02T21:14:41.763Z,44.12
2023-04-02T21:17:44.759Z,44.25
2023-04-02T21:20:55.369Z,45.34
2023-04-02T21:24:03.361Z,45.34
2023-04-02T21:27:05.773Z,45.96
2023-04-02T21:30:08.594Z,45.06
2023-04-02T21:33:10.969Z,46.03
2023-04-02T21:36:19.021Z,45.63
2023-04-02T21:39:23.100Z,45.61
2023-04-02T21:42:25.951Z,45.79
2023-04-02T21:45:28.428Z,46.06
2023-04-02T21:48:31.742Z,47.12
2023-04-02T21:51:35.234Z,46.70
2023-04-02T21:54:37.522Z,45.83
2023-04-02T21:57:39.987Z,45.93
2023-04-02T22:00:42.365Z,45.98
2023-04-02T22:03:45.266Z,45.92
2023-04-02T22:06:48.389Z,45.34
2023-04-02T22:09:50.708Z,44.71
2023-04-02T22:12:52.911Z,45.24
2023-04-02T22:16:00.405Z,45.11
2023-04-02T22:19:06.048Z,44.60
2023-04-02T22:22:08.455Z,44.66
2023-04-02T22:25:10.709Z,45.89
2023-04-02T22:28:12.976Z,45.35
2023-04-02T22:31:19.142Z,44.56
2023-04-02T22:34:21.503Z,44.99
2023-04-02T22:37:23.940Z,45.09
2023-04-02T22:40:26.385Z,45.75
2023-04-02T22:43:28.634Z,45.29
2023-04-02T22:46:31.636Z,44.81
2023-04-02T22:49:33.823Z,44.12
2023-04-02T22:52:36.131Z,44.57
2023-04-02T22:55:38.427Z,44.23
2023-04-02T22:58:40.913Z,44.44
2023-04-02T23:01:43.849Z,44.51
2023-04-02T23:04:46.230Z,44.00
2023-04-02T23:07:48.459Z,44.04
2023-04-02T23:10:50.893Z,44.42
2023-04-02T23:13:54.806Z,43.95
2023-04-02T23:16:57.146Z,43.53
2023-04-02T23:19:59.424Z,43.64
2023-04-02T23:23:01.638Z,43.14
2023-04-02T23:26:07.207Z,44.00
2023-04-02T23:29:09.797Z,44.05
2023-04-02T23:32:12.039Z,43.75
2023-04-02T23:35:14.394Z,43.30
2023-04-02T23:38:16.632Z,43.62
2023-04-02T23:41:18.869Z,42.79
2023-04-02T23:44:21.143Z,43.00
2023-04-02T23:47:23.452Z,43.49
2023-04-02T23:50:25.809Z,43.20
2023-04-02T23:53:28.015Z,43.77
2023-04-02T23:56:30.602Z,43.26
2023-04-02T23:59:32.910Z,43.57
